Hōlualoa, HI

3:14 AM HST on September 05, 2015 (GMT -1000)
Kona Vistas | | Change Station
CLOSE
Current Station
Personal Weather Station
Location: Kailua-Kona, HI
Elevation: 541 ft
Nearby Weather Stations
Active Advisory: High Surf Advisory Active Notice: Record Report

Elev 541 ft 19.61 °N, 155.96 °W | Updated 28 seconds ago

Overcast
Overcast
73.6 °F
Feels Like 71 °F
N
0.9
Wind Variable Wind from SE
Gusts 2.5 mph

Today
High -- | Low -- °F
--% Chance of Precip.
Yesterday
High -- | Low -- °F
Precip. -- in
6:08 AM 6:34 PM
Waning Gibbous, 49% visible
Pressure 29.80 in
Visibility 10.0 miles
Clouds Scattered Clouds 2200 ft
Mostly Cloudy 2600 ft
Overcast 4700 ft
Heat Index 71 °F
Dew Point 71 °F
Humidity 93%
Rainfall 0.02 in
Snow Depth Not available.
UV 0.0 out of 12
Pollen Not available.
Air Quality Not available.
Flu Activity Not available.
SPECI PHKO 051305Z AUTO 19004KT 10SM SCT022 BKN026 OVC047 27/23 A2980 RMK AO2 TSNO
Pressure 29.80 in
Visibility 10.0 miles
Clouds Scattered Clouds 2200 ft
Mostly Cloudy 2600 ft
Overcast 4700 ft
Heat Index 71 °F
Dew Point 71 °F
Humidity 93%
Rainfall 0.02 in
Snow Depth Not available.
UV 0.0 out of 12
Pollen Not available.
Air Quality Not available.
Flu Activity Not available.
SPECI PHKO 051305Z AUTO 19004KT 10SM SCT022 BKN026 OVC047 27/23 A2980 RMK AO2 TSNO

10-Day Weather Forecast

×

Almanac

Astronomy

Sep. 05, 2015 Rise Set
Actual Time
Civil Twilight
Nautical Twilight
Astronomical Twilight
Moon
Length of Visible Light
Length of Day
Tomorrow will be .
, % of the Moon is Illuminated

Today's Extremes

State Highs State Lows

Community

WunderPhotos

Upload Photos

1,852,454 photos uploaded!

WunderBlogs® & News

Nearby

Air Quality

  Air Quality AQ Index Pollutant
Not available.

Snow Depth

Station Depth Elevation

Earthquake Activity

City Distance Mag. Time & Date
Minimum magnitude displayed is 2.5.

Coastal Water Temperatures

Place Temperature

Stations

Nearby Weather Stations

Station Location Temp. Windchill Dew Point Humidity Wind Precip. Elev Updated Type
                   
High Surf Advisory
Statement as of 4:07 PM HST on September 04, 2015

... High surf advisory remains in effect until 6 PM HST Saturday...

A high surf advisory remains in effect until 6 PM HST Saturday.

* Surf... along south facing shores... 6 to 8 feet through
tonight... rising to 7 to 10 feet Saturday.

* Timing... through Saturday 6 PM HST.

* Impacts... moderate... expect strong breaking waves... shore
break... and strong longshore and rip currents making swimming
difficult and dangerous.

Precautionary/preparedness actions...

Beachgoers... swimmers... and surfers should heed all advice given
by ocean safety officials and exercise caution. Boaters should
expect recreational surfers and body boarders utilizing Harbor
channels to access surfing areas.